createdAt,value
2018-06-02T00:01:06.043Z,60.77
2018-06-02T00:03:33.460Z,65.07
2018-06-02T00:06:00.872Z,65.60
2018-06-02T00:08:28.252Z,64.97
2018-06-02T00:10:55.686Z,65.07
2018-06-02T00:13:23.049Z,61.67
2018-06-02T00:15:50.405Z,60.87
2018-06-02T00:18:17.799Z,59.40
2018-06-02T00:20:45.230Z,69.27
2018-06-02T00:23:12.590Z,69.30
2018-06-02T00:25:40.030Z,59.23
2018-06-02T00:28:07.447Z,61.73
2018-06-02T00:30:34.836Z,60.67
2018-06-02T00:33:02.240Z,71.13
2018-06-02T00:35:29.659Z,60.97
2018-06-02T00:37:57.101Z,61.70
2018-06-02T00:40:24.570Z,57.17
2018-06-02T00:42:52.028Z,58.27
2018-06-02T00:45:19.418Z,63.00
2018-06-02T00:47:46.827Z,64.50
2018-06-02T00:50:14.219Z,60.20
2018-06-02T00:52:41.626Z,62.23
2018-06-02T00:55:09.495Z,60.77
2018-06-02T00:57:36.898Z,64.30
2018-06-02T01:00:04.360Z,58.60
2018-06-02T01:02:31.766Z,73.23
2018-06-02T01:04:59.114Z,59.07
2018-06-02T01:07:26.516Z,62.10
2018-06-02T01:09:53.888Z,64.97
2018-06-02T01:12:21.263Z,61.90
2018-06-02T01:14:48.796Z,74.23
2018-06-02T01:17:16.146Z,63.77
2018-06-02T01:19:43.537Z,70.33
2018-06-02T01:22:10.973Z,70.07
2018-06-02T01:24:38.335Z,63.20
2018-06-02T01:27:05.757Z,59.53
2018-06-02T01:29:33.106Z,61.10
2018-06-02T01:32:00.490Z,62.13
2018-06-02T01:34:27.872Z,69.83
2018-06-02T01:36:55.287Z,63.40
2018-06-02T01:39:22.711Z,60.53
2018-06-02T01:41:50.214Z,65.63
2018-06-02T01:44:17.669Z,72.43
2018-06-02T01:46:45.060Z,67.57
2018-06-02T01:49:12.486Z,69.13
2018-06-02T01:51:39.889Z,65.20
2018-06-02T01:54:07.268Z,67.57
2018-06-02T01:56:34.661Z,72.63
2018-06-02T01:59:02.086Z,74.13
2018-06-02T02:01:29.474Z,74.37
2018-06-02T02:03:56.913Z,70.73
2018-06-02T02:06:24.341Z,71.90
2018-06-02T02:08:51.748Z,72.27
2018-06-02T02:11:19.104Z,76.13
2018-06-02T02:13:46.463Z,71.47
2018-06-02T02:16:13.858Z,69.20
2018-06-02T02:18:41.317Z,65.50
2018-06-02T02:21:08.736Z,71.00
2018-06-02T02:23:36.129Z,72.87
2018-06-02T02:26:03.497Z,70.57
2018-06-02T02:28:30.968Z,66.57
2018-06-02T02:30:59.120Z,75.00
2018-06-02T02:33:26.535Z,71.83
2018-06-02T02:35:53.918Z,68.73
2018-06-02T02:38:21.350Z,70.43
2018-06-02T02:40:48.841Z,81.70
2018-06-02T02:43:16.237Z,74.63
2018-06-02T02:45:43.655Z,77.53
2018-06-02T02:48:11.111Z,67.40
2018-06-02T02:50:44.174Z,73.50
2018-06-02T02:53:15.216Z,79.60
2018-06-02T02:55:42.628Z,72.97
2018-06-02T02:58:10.012Z,71.00
2018-06-02T03:00:37.428Z,73.43
2018-06-02T03:03:04.810Z,74.33
2018-06-02T03:05:32.237Z,67.63
2018-06-02T03:07:59.609Z,67.57
2018-06-02T03:10:26.995Z,69.47
2018-06-02T03:12:54.389Z,66.20
2018-06-02T03:15:21.824Z,69.30
2018-06-02T03:17:49.182Z,68.73
2018-06-02T03:20:16.619Z,67.43
2018-06-02T03:22:43.980Z,68.17
2018-06-02T03:25:12.356Z,69.87
2018-06-02T03:27:39.751Z,68.07
2018-06-02T03:30:07.108Z,66.90
2018-06-02T03:32:34.548Z,63.90
2018-06-02T03:35:01.936Z,63.90
2018-06-02T03:37:29.390Z,61.30
2018-06-02T03:39:56.857Z,65.53
2018-06-02T03:42:24.241Z,63.27
2018-06-02T03:44:51.737Z,65.17
2018-06-02T03:47:19.215Z,59.07
2018-06-02T03:49:46.631Z,63.60
2018-06-02T03:52:13.984Z,64.80
2018-06-02T03:54:41.400Z,60.37
2018-06-02T03:57:08.768Z,65.10
2018-06-02T03:59:36.172Z,60.97
2018-06-02T04:02:03.619Z,59.70
2018-06-02T04:04:31.126Z,63.80
2018-06-02T04:06:58.574Z,59.43
2018-06-02T04:09:25.978Z,62.27
2018-06-02T04:11:53.408Z,62.60
2018-06-02T04:14:20.769Z,59.37
2018-06-02T04:16:48.191Z,61.63
2018-06-02T04:19:15.579Z,59.07
2018-06-02T04:21:42.941Z,62.23
2018-06-02T04:24:10.365Z,59.53
2018-06-02T04:26:37.773Z,62.00
2018-06-02T04:29:05.139Z,60.23
2018-06-02T04:31:32.616Z,61.30
2018-06-02T04:34:00.057Z,57.43
2018-06-02T04:36:27.449Z,57.10
2018-06-02T04:38:54.909Z,55.40
2018-06-02T04:41:22.365Z,56.73
2018-06-02T04:43:49.858Z,60.13
2018-06-02T04:46:17.264Z,59.30
2018-06-02T04:48:44.722Z,54.93
2018-06-02T04:51:12.108Z,57.67
2018-06-02T04:53:39.478Z,55.10
2018-06-02T04:56:06.886Z,63.63
2018-06-02T04:58:34.296Z,53.97
2018-06-02T05:01:01.655Z,52.20
2018-06-02T05:03:29.122Z,54.87
2018-06-02T05:05:56.493Z,62.70
2018-06-02T05:08:23.891Z,57.13
2018-06-02T05:10:51.261Z,56.20
2018-06-02T05:13:18.665Z,54.23
2018-06-02T05:15:46.028Z,57.37
2018-06-02T05:18:13.422Z,54.80
2018-06-02T05:20:40.803Z,53.20
2018-06-02T05:23:08.189Z,51.07
2018-06-02T05:25:35.587Z,49.60
2018-06-02T05:28:02.964Z,54.70
2018-06-02T05:30:30.350Z,51.57
2018-06-02T05:32:57.712Z,55.80
2018-06-02T05:35:25.171Z,53.40
2018-06-02T05:37:52.531Z,52.47
2018-06-02T05:40:20.070Z,56.40
2018-06-02T05:42:47.471Z,51.27
2018-06-02T05:45:14.857Z,49.07
2018-06-02T05:47:42.232Z,49.43
2018-06-02T05:50:09.618Z,52.60
2018-06-02T05:52:37.016Z,47.83
2018-06-02T05:55:04.395Z,55.63
2018-06-02T05:57:31.756Z,47.50
2018-06-02T05:59:59.217Z,48.07
2018-06-02T06:02:26.541Z,46.70
2018-06-02T06:04:53.944Z,49.50
2018-06-02T06:07:21.300Z,49.07
2018-06-02T06:09:48.688Z,53.60
2018-06-02T06:12:16.109Z,48.10
2018-06-02T06:14:43.611Z,53.03
2018-06-02T06:17:10.971Z,48.13
2018-06-02T06:19:38.433Z,47.20
2018-06-02T06:22:05.829Z,49.23
2018-06-02T06:24:33.228Z,48.90
2018-06-02T06:27:00.648Z,47.50
2018-06-02T06:29:28.015Z,47.43
2018-06-02T06:31:55.399Z,43.60
2018-06-02T06:34:22.789Z,46.00
2018-06-02T06:36:50.204Z,45.50
2018-06-02T06:39:17.569Z,46.60
2018-06-02T06:41:45.099Z,44.53
2018-06-02T06:44:12.499Z,48.57
2018-06-02T06:46:39.963Z,47.47
2018-06-02T06:49:07.380Z,50.80
2018-06-02T06:51:34.774Z,49.47
2018-06-02T06:54:02.188Z,55.47
2018-06-02T06:56:29.560Z,46.93
2018-06-02T06:58:56.974Z,47.03
2018-06-02T07:01:24.335Z,49.50
2018-06-02T07:03:52.022Z,50.40
2018-06-02T07:06:19.380Z,55.47
2018-06-02T07:08:46.758Z,51.17
2018-06-02T07:11:14.155Z,49.97
2018-06-02T07:13:41.596Z,52.20
2018-06-02T07:16:08.984Z,54.47
2018-06-02T07:18:36.386Z,53.70
2018-06-02T07:21:05.354Z,55.47
2018-06-02T07:23:32.797Z,53.83
2018-06-02T07:26:00.212Z,55.13
2018-06-02T07:28:27.620Z,57.40
2018-06-02T07:30:55.057Z,52.00
2018-06-02T07:33:22.445Z,52.67
2018-06-02T07:35:49.869Z,56.40
2018-06-02T07:38:17.267Z,53.43
2018-06-02T07:40:44.627Z,49.97
2018-06-02T07:43:12.048Z,47.77
2018-06-02T07:45:39.439Z,49.63
2018-06-02T07:48:06.835Z,49.70
2018-06-02T07:50:34.256Z,46.10
2018-06-02T07:53:01.737Z,48.13
2018-06-02T07:55:29.099Z,46.60
2018-06-02T07:57:56.467Z,47.00
2018-06-02T08:00:23.920Z,48.10
2018-06-02T08:02:51.341Z,47.03
2018-06-02T08:05:18.757Z,50.23
2018-06-02T08:07:46.159Z,47.20
2018-06-02T08:10:13.578Z,47.80
2018-06-02T08:12:40.963Z,49.93
2018-06-02T08:15:08.379Z,51.20
2018-06-02T08:17:35.843Z,46.50
2018-06-02T08:20:03.243Z,52.80
2018-06-02T08:22:30.637Z,47.70
2018-06-02T08:24:58.029Z,52.60
2018-06-02T08:27:25.445Z,49.23
2018-06-02T08:29:52.804Z,52.00
2018-06-02T08:32:20.201Z,49.37
2018-06-02T08:34:47.585Z,53.27
2018-06-02T08:37:15.013Z,48.87
2018-06-02T08:39:42.370Z,47.63
2018-06-02T08:42:09.732Z,50.23
2018-06-02T08:44:37.119Z,47.00
2018-06-02T08:47:04.467Z,48.43
2018-06-02T08:49:31.891Z,55.43
2018-06-02T08:51:59.289Z,59.07
2018-06-02T08:54:26.709Z,56.67
2018-06-02T08:56:54.062Z,51.20
2018-06-02T08:59:21.476Z,51.70
2018-06-02T09:01:48.890Z,50.77
2018-06-02T09:04:16.247Z,60.57
2018-06-02T09:06:43.620Z,50.63
2018-06-02T09:09:11.048Z,47.87
2018-06-02T09:11:38.441Z,47.93
2018-06-02T09:14:05.795Z,46.60
2018-06-02T09:16:33.208Z,48.00
2018-06-02T09:19:00.644Z,46.00
2018-06-02T09:21:28.029Z,46.27
2018-06-02T09:23:55.432Z,48.17
2018-06-02T09:26:22.783Z,46.77
2018-06-02T09:28:50.203Z,44.03
2018-06-02T09:31:17.578Z,47.47
2018-06-02T09:33:44.934Z,40.83
2018-06-02T09:36:12.372Z,47.27
2018-06-02T09:38:39.785Z,43.67
2018-06-02T09:41:07.130Z,41.50
2018-06-02T09:43:34.535Z,40.90
2018-06-02T09:46:01.930Z,41.73
2018-06-02T09:48:30.286Z,39.50
2018-06-02T09:50:57.690Z,42.57
2018-06-02T09:53:29.074Z,38.93
2018-06-02T09:55:56.493Z,41.33
2018-06-02T09:58:23.906Z,33.00
2018-06-02T10:00:51.277Z,38.00
2018-06-02T10:03:18.672Z,40.23
2018-06-02T10:05:46.032Z,43.00
2018-06-02T10:08:13.456Z,39.73
2018-06-02T10:10:40.853Z,39.57
2018-06-02T10:13:08.269Z,31.53
2018-06-02T10:15:35.661Z,45.63
2018-06-02T10:18:03.100Z,50.50
2018-06-02T10:20:30.691Z,51.13
2018-06-02T10:22:58.068Z,50.00
2018-06-02T10:25:25.465Z,52.37
2018-06-02T10:27:52.871Z,54.50
2018-06-02T10:30:20.265Z,58.70
2018-06-02T10:32:47.634Z,58.23
2018-06-02T10:35:15.066Z,62.70
2018-06-02T10:37:42.501Z,66.37
2018-06-02T10:40:09.948Z,64.70
2018-06-02T10:42:37.380Z,62.93
2018-06-02T10:45:04.883Z,63.13
2018-06-02T10:47:32.252Z,66.10
2018-06-02T10:49:59.656Z,59.87
2018-06-02T10:52:27.035Z,64.40
2018-06-02T10:54:54.415Z,71.50
2018-06-02T10:57:21.806Z,63.03
2018-06-02T10:59:49.218Z,62.27
2018-06-02T11:02:16.589Z,60.03
2018-06-02T11:04:44.008Z,54.93
2018-06-02T11:07:11.373Z,55.73
2018-06-02T11:09:38.806Z,55.87
2018-06-02T11:12:06.165Z,52.90
2018-06-02T11:14:33.555Z,51.73
2018-06-02T11:17:00.945Z,51.37
2018-06-02T11:19:28.352Z,53.40
2018-06-02T11:21:55.752Z,54.50
2018-06-02T11:24:23.171Z,49.60
2018-06-02T11:26:50.531Z,57.70
2018-06-02T11:29:17.961Z,46.80
2018-06-02T11:31:45.346Z,46.50
2018-06-02T11:34:12.711Z,46.60
2018-06-02T11:36:40.246Z,48.23
2018-06-02T11:39:07.783Z,48.70
2018-06-02T11:41:35.205Z,47.87
2018-06-02T11:44:02.635Z,49.83
2018-06-02T11:46:30.068Z,44.97
2018-06-02T11:48:57.451Z,44.50
2018-06-02T11:51:24.814Z,50.63
2018-06-02T11:53:52.358Z,44.50
2018-06-02T11:56:19.764Z,49.67
2018-06-02T11:58:47.223Z,48.73
2018-06-02T12:01:14.634Z,53.50
2018-06-02T12:03:41.994Z,48.37
2018-06-02T12:06:09.361Z,47.77
2018-06-02T12:08:36.766Z,49.00
2018-06-02T12:11:04.227Z,51.30
2018-06-02T12:13:31.619Z,51.47
2018-06-02T12:15:58.979Z,48.47
2018-06-02T12:18:26.379Z,47.27
2018-06-02T12:20:53.870Z,46.20
2018-06-02T12:23:21.328Z,44.47
2018-06-02T12:25:48.751Z,45.07
2018-06-02T12:28:16.131Z,43.83
2018-06-02T12:30:43.545Z,41.67
2018-06-02T12:33:10.931Z,40.07
2018-06-02T12:35:38.404Z,38.97
2018-06-02T12:38:05.754Z,34.43
2018-06-02T12:40:33.118Z,31.23
2018-06-02T12:43:00.541Z,31.33
2018-06-02T12:45:27.941Z,32.33
2018-06-02T12:47:55.360Z,31.57
2018-06-02T12:50:22.715Z,32.13
2018-06-02T12:52:50.137Z,30.10
2018-06-02T12:55:17.564Z,33.23
2018-06-02T12:57:44.960Z,33.03
2018-06-02T13:00:12.435Z,35.63
2018-06-02T13:02:39.867Z,33.27
2018-06-02T13:05:07.301Z,37.27
2018-06-02T13:07:34.739Z,37.17
2018-06-02T13:10:02.171Z,34.47
2018-06-02T13:12:29.648Z,35.67
2018-06-02T13:14:57.040Z,34.20
2018-06-02T13:17:24.470Z,36.67
2018-06-02T13:19:51.834Z,35.77
2018-06-02T13:22:19.258Z,30.80
2018-06-02T13:24:46.616Z,28.70
2018-06-02T13:27:14.053Z,34.20
2018-06-02T13:29:41.481Z,36.73
2018-06-02T13:32:08.838Z,33.00
2018-06-02T13:34:36.278Z,33.53
2018-06-02T13:37:03.782Z,35.50
2018-06-02T13:39:31.206Z,33.77
2018-06-02T13:41:58.581Z,34.50
2018-06-02T13:44:25.998Z,35.63
2018-06-02T13:46:53.350Z,32.47
2018-06-02T13:49:20.709Z,36.80
2018-06-02T13:51:48.103Z,31.13
2018-06-02T13:54:15.530Z,30.03
2018-06-02T13:56:42.919Z,35.00
2018-06-02T13:59:10.281Z,31.13
2018-06-02T14:01:37.764Z,30.60
2018-06-02T14:04:05.185Z,31.27
2018-06-02T14:06:32.589Z,32.60
2018-06-02T14:08:59.985Z,34.33
2018-06-02T14:11:27.335Z,32.00
2018-06-02T14:13:54.736Z,35.73
2018-06-02T14:16:22.149Z,37.70
2018-06-02T14:18:49.549Z,34.37
2018-06-02T14:21:16.950Z,32.17
2018-06-02T14:23:44.355Z,38.10
2018-06-02T14:26:11.825Z,34.57
2018-06-02T14:28:39.228Z,35.13
2018-06-02T14:31:06.622Z,29.60
2018-06-02T14:33:34.020Z,29.03
2018-06-02T14:36:01.430Z,28.73
2018-06-02T14:38:28.796Z,29.30
2018-06-02T14:40:56.234Z,30.53
2018-06-02T14:43:23.632Z,27.47
2018-06-02T14:45:51.099Z,31.33
2018-06-02T14:48:18.513Z,27.30
2018-06-02T14:50:45.876Z,31.40
2018-06-02T14:53:13.307Z,34.50
2018-06-02T14:55:40.734Z,33.10
2018-06-02T14:58:08.133Z,33.43
2018-06-02T15:00:35.603Z,32.60
2018-06-02T15:03:03.015Z,31.83
2018-06-02T15:05:30.388Z,29.33
2018-06-02T15:07:57.796Z,30.33
2018-06-02T15:10:25.157Z,29.87
2018-06-02T15:12:52.575Z,30.90
2018-06-02T15:15:19.944Z,28.30
2018-06-02T15:17:47.456Z,28.80
2018-06-02T15:20:14.837Z,26.70
2018-06-02T15:22:42.321Z,28.23
2018-06-02T15:25:09.746Z,26.53
2018-06-02T15:27:37.192Z,29.03
2018-06-02T15:30:04.612Z,24.90
2018-06-02T15:32:32.015Z,24.97
2018-06-02T15:34:59.372Z,25.23
2018-06-02T15:37:26.751Z,30.50
2018-06-02T15:39:54.207Z,30.23
2018-06-02T15:42:21.631Z,37.87
2018-06-02T15:44:49.029Z,29.17
2018-06-02T15:47:16.389Z,30.20
2018-06-02T15:49:43.778Z,31.90
2018-06-02T15:52:11.171Z,29.97
2018-06-02T15:54:38.556Z,31.23
2018-06-02T15:57:06.070Z,27.87
2018-06-02T15:59:33.461Z,33.90
2018-06-02T16:02:00.984Z,30.97
2018-06-02T16:04:28.353Z,30.87
2018-06-02T16:06:55.739Z,29.87
2018-06-02T16:09:23.715Z,30.63
2018-06-02T16:11:51.221Z,27.80
2018-06-02T16:14:18.644Z,26.00
2018-06-02T16:16:46.053Z,27.13
2018-06-02T16:19:13.411Z,27.37
2018-06-02T16:21:40.879Z,26.00
2018-06-02T16:24:08.269Z,26.07
2018-06-02T16:26:35.703Z,27.97
2018-06-02T16:29:03.109Z,27.70
2018-06-02T16:31:30.544Z,30.67
2018-06-02T16:33:57.986Z,28.60
2018-06-02T16:36:25.444Z,29.27
2018-06-02T16:38:52.852Z,26.80
2018-06-02T16:41:20.297Z,30.30
2018-06-02T16:43:47.664Z,28.43
2018-06-02T16:46:15.109Z,28.03
2018-06-02T16:48:42.464Z,33.17
2018-06-02T16:51:09.904Z,32.67
2018-06-02T16:53:37.306Z,32.03
2018-06-02T16:56:04.704Z,31.40
2018-06-02T16:58:32.135Z,34.03
2018-06-02T17:00:59.499Z,35.20
2018-06-02T17:03:26.853Z,38.33
2018-06-02T17:05:54.277Z,33.13
2018-06-02T17:08:21.705Z,33.03
2018-06-02T17:10:49.132Z,33.10
2018-06-02T17:13:16.574Z,31.93
2018-06-02T17:15:43.956Z,36.83
2018-06-02T17:18:11.465Z,34.87
2018-06-02T17:20:38.995Z,34.70
2018-06-02T17:23:06.424Z,34.23
2018-06-02T17:25:33.788Z,33.87
2018-06-02T17:28:01.270Z,37.00
2018-06-02T17:30:28.663Z,37.50
2018-06-02T17:32:56.068Z,37.73
2018-06-02T17:35:23.420Z,35.33
2018-06-02T17:37:50.837Z,36.53
2018-06-02T17:40:18.203Z,41.70
2018-06-02T17:42:45.619Z,35.70
2018-06-02T17:45:12.989Z,38.83
2018-06-02T17:47:40.404Z,42.67
2018-06-02T17:50:07.832Z,39.30
2018-06-02T17:52:35.226Z,38.77
2018-06-02T17:55:02.609Z,39.90
2018-06-02T17:57:30.021Z,39.70
2018-06-02T17:59:57.444Z,41.77
2018-06-02T18:02:24.836Z,41.23
2018-06-02T18:04:52.248Z,38.80
2018-06-02T18:07:19.760Z,42.27
2018-06-02T18:09:47.241Z,38.77
2018-06-02T18:12:14.628Z,40.40
2018-06-02T18:14:42.026Z,37.60
2018-06-02T18:17:09.415Z,36.23
2018-06-02T18:19:36.778Z,40.10
2018-06-02T18:22:04.165Z,39.27
2018-06-02T18:24:31.596Z,52.17
2018-06-02T18:26:58.992Z,89.67
2018-06-02T18:29:26.429Z,119.07
2018-06-02T18:31:53.824Z,77.87
2018-06-02T18:34:21.222Z,79.90
2018-06-02T18:36:48.586Z,86.07
2018-06-02T18:39:16.004Z,81.53
2018-06-02T18:41:43.363Z,87.97
2018-06-02T18:44:10.724Z,97.77
2018-06-02T18:46:38.157Z,98.13
2018-06-02T18:49:05.548Z,92.70
2018-06-02T18:51:32.898Z,88.57
2018-06-02T18:54:00.316Z,78.10
2018-06-02T18:56:27.727Z,90.17
2018-06-02T18:58:55.115Z,95.40
2018-06-02T19:01:22.543Z,79.90
2018-06-02T19:03:49.957Z,81.87
2018-06-02T19:06:17.324Z,78.33
2018-06-02T19:08:44.726Z,78.03
2018-06-02T19:11:12.112Z,77.87
2018-06-02T19:13:39.531Z,74.73
2018-06-02T19:16:06.924Z,72.87
2018-06-02T19:18:34.325Z,76.33
2018-06-02T19:21:01.721Z,66.53
2018-06-02T19:23:29.103Z,71.43
2018-06-02T19:25:56.555Z,72.93
2018-06-02T19:28:23.941Z,66.63
2018-06-02T19:30:51.325Z,68.07
2018-06-02T19:33:18.746Z,62.47
2018-06-02T19:35:46.100Z,63.23
2018-06-02T19:38:13.499Z,61.60
2018-06-02T19:40:40.874Z,61.60
2018-06-02T19:43:08.332Z,59.30
2018-06-02T19:45:35.718Z,52.43
2018-06-02T19:48:03.125Z,58.43
2018-06-02T19:50:30.515Z,56.53
2018-06-02T19:52:57.911Z,58.50
2018-06-02T19:55:25.311Z,54.13
2018-06-02T19:57:52.669Z,55.07
2018-06-02T20:00:20.089Z,56.93
2018-06-02T20:02:47.504Z,57.70
2018-06-02T20:05:14.854Z,53.17
2018-06-02T20:07:42.208Z,60.53
2018-06-02T20:10:09.623Z,54.30
2018-06-02T20:12:37.011Z,53.00
2018-06-02T20:15:04.493Z,52.63
2018-06-02T20:17:31.949Z,52.83
2018-06-02T20:19:59.349Z,54.13
2018-06-02T20:22:26.738Z,52.70
2018-06-02T20:24:54.107Z,53.97
2018-06-02T20:27:21.513Z,52.63
2018-06-02T20:29:48.884Z,47.77
2018-06-02T20:32:16.313Z,48.10
2018-06-02T20:34:43.732Z,47.73
2018-06-02T20:37:11.122Z,47.13
2018-06-02T20:39:38.618Z,49.03
2018-06-02T20:42:05.985Z,43.40
2018-06-02T20:44:33.335Z,44.00
2018-06-02T20:47:00.781Z,46.67
2018-06-02T20:49:28.185Z,44.87
2018-06-02T20:51:55.548Z,42.63
2018-06-02T20:54:22.988Z,43.47
2018-06-02T20:56:50.377Z,46.90
2018-06-02T20:59:17.808Z,47.57
2018-06-02T21:01:45.239Z,49.50
2018-06-02T21:04:12.778Z,43.50
2018-06-02T21:06:40.233Z,49.07
2018-06-02T21:09:07.632Z,42.70
2018-06-02T21:11:35.042Z,43.43
2018-06-02T21:14:02.447Z,45.27
2018-06-02T21:16:29.860Z,45.67
2018-06-02T21:18:57.252Z,44.33
2018-06-02T21:21:25.394Z,46.60
2018-06-02T21:23:52.761Z,43.17
2018-06-02T21:26:20.159Z,43.53
2018-06-02T21:28:47.511Z,46.93
2018-06-02T21:31:14.934Z,46.70
2018-06-02T21:33:42.409Z,46.23
2018-06-02T21:36:09.828Z,49.17
2018-06-02T21:38:37.308Z,46.90
2018-06-02T21:41:04.737Z,51.70
2018-06-02T21:43:32.085Z,51.57
2018-06-02T21:45:59.462Z,50.67
2018-06-02T21:48:26.850Z,54.60
2018-06-02T21:50:54.276Z,49.97
2018-06-02T21:53:21.660Z,51.33
2018-06-02T21:55:49.177Z,51.83
2018-06-02T21:58:16.580Z,56.90
2018-06-02T22:00:43.948Z,53.20
2018-06-02T22:03:11.477Z,48.67
2018-06-02T22:05:38.838Z,49.40
2018-06-02T22:08:06.232Z,54.73
2018-06-02T22:10:33.641Z,53.97
2018-06-02T22:13:01.023Z,54.30
2018-06-02T22:15:28.413Z,57.00
2018-06-02T22:17:55.911Z,59.00
2018-06-02T22:20:23.294Z,60.13
2018-06-02T22:22:50.692Z,58.00
2018-06-02T22:25:18.080Z,57.97
2018-06-02T22:27:45.436Z,62.53
2018-06-02T22:30:12.823Z,62.40
2018-06-02T22:32:40.184Z,63.83
2018-06-02T22:35:07.579Z,67.17
2018-06-02T22:37:34.955Z,63.30
2018-06-02T22:40:02.382Z,71.20
2018-06-02T22:42:29.786Z,67.40
2018-06-02T22:44:57.191Z,70.37
2018-06-02T22:47:24.586Z,77.23
2018-06-02T22:49:51.936Z,68.10
2018-06-02T22:52:19.327Z,68.67
2018-06-02T22:54:46.756Z,65.90
2018-06-02T22:57:14.247Z,68.30
2018-06-02T22:59:41.599Z,68.70
2018-06-02T23:02:09.012Z,65.50
2018-06-02T23:04:36.412Z,63.97
2018-06-02T23:07:03.845Z,68.00
2018-06-02T23:09:31.245Z,66.67
2018-06-02T23:11:58.643Z,67.67
2018-06-02T23:14:26.032Z,64.40
2018-06-02T23:16:53.412Z,71.57
2018-06-02T23:19:20.803Z,65.87
2018-06-02T23:21:48.201Z,69.70
2018-06-02T23:24:15.603Z,67.20
2018-06-02T23:26:42.999Z,64.00
2018-06-02T23:29:10.393Z,68.97
2018-06-02T23:31:37.762Z,76.40
2018-06-02T23:34:05.192Z,62.83
2018-06-02T23:36:32.608Z,70.57
2018-06-02T23:38:59.975Z,68.97
2018-06-02T23:41:27.373Z,72.63
2018-06-02T23:43:54.770Z,65.50
2018-06-02T23:46:22.210Z,75.73
2018-06-02T23:48:49.669Z,80.60
2018-06-02T23:51:17.082Z,78.67
2018-06-02T23:53:44.467Z,76.50
2018-06-02T23:56:11.854Z,73.07
2018-06-02T23:58:39.246Z,82.90
